Terminal Aerodrome Forecast
Issued by NWS Milwaukee/Sullivan, WI

Home | Current Version | Previous Version | Text Only | Print | Product List | Glossary On
Versions: 1 2 3 4 5 6 7 8 9 10 11 12 13 14 15 16 17 18 19 20 21 22 23 24 25 26 27 28
000
FTUS43 KMKX 201823 CCA
TAFMSN
TAF COR
KMSN 201823Z 2018/2118 22006KT 3SM -SHRA BR SCT007 BKN035 OVC080
     FM202000 29007KT 5SM -SHRA BR OVC008
     FM202200 29007KT P6SM VCSH OVC010
     FM210000 30007KT P6SM SCT015 BKN040
     FM211200 32009KT P6SM SCT200=

USA.gov is the U.S. government's official web portal to all federal, state and local government web resources and services.